<?xml version="1.0" encoding="UTF-8" standalone="no" ?>
<gpx xmlns="http://www.topografix.com/GPX/1/1" xmlns:xsi="http://www.w3.org/2001/XMLSchema-instance" xsi:schemaLocation="http://www.topografix.com/GPX/1/1 http://www.topografix.com/GPX/1/1/gpx.xsd" version="1.1" creator="VisuGPX - https://www.visugpx.com">
  <metadata>
    <name>SoulainesAubance</name>
    <desc><![CDATA[TCm0CnLFMc gnerando idor: 18813754_20883968_20884331_]]></desc>
  </metadata>
  <trk>
    <name><![CDATA[Soulaines ter-20884331_19.6km]]></name>
    <extensions>
      <line xmlns="http://www.topografix.com/GPX/gpx_style/0/2">
        <color>FF0000</color>
        <opacity>0.65</opacity>
        <width>6</width>
      </line>
    </extensions>
    <trkseg>
      <trkpt lat="47.36431" lon="-0.5244">
        <ele>55</ele>
        <time>2025-03-13T19:22:59Z</time>
      </trkpt>
      <trkpt lat="47.36441" lon="-0.52468">
        <ele>56</ele>
        <time>2025-03-13T19:23:16Z</time>
      </trkpt>
      <trkpt lat="47.36443" lon="-0.52474">
        <ele>56</ele>
        <time>2025-03-13T19:23:20Z</time>
      </trkpt>
      <trkpt lat="47.36449" lon="-0.52485">
        <ele>56</ele>
        <time>2025-03-13T19:23:27Z</time>
      </trkpt>
      <trkpt lat="47.36409" lon="-0.52509">
        <ele>54</ele>
        <time>2025-03-13T19:24:02Z</time>
      </trkpt>
      <trkpt lat="47.36375" lon="-0.52521">
        <ele>53</ele>
        <time>2025-03-13T19:24:30Z</time>
      </trkpt>
      <trkpt lat="47.36368" lon="-0.5252">
        <ele>53</ele>
        <time>2025-03-13T19:24:36Z</time>
      </trkpt>
      <trkpt lat="47.3633" lon="-0.52516">
        <ele>52</ele>
        <time>2025-03-13T19:25:06Z</time>
      </trkpt>
      <trkpt lat="47.36245" lon="-0.52496">
        <ele>50</ele>
        <time>2025-03-13T19:26:15Z</time>
      </trkpt>
      <trkpt lat="47.36238" lon="-0.52519">
        <ele>50</ele>
        <time>2025-03-13T19:26:29Z</time>
      </trkpt>
      <trkpt lat="47.36224" lon="-0.52565">
        <ele>51</ele>
        <time>2025-03-13T19:26:56Z</time>
      </trkpt>
      <trkpt lat="47.36216" lon="-0.52601">
        <ele>52</ele>
        <time>2025-03-13T19:27:17Z</time>
      </trkpt>
      <trkpt lat="47.36187" lon="-0.5269">
        <ele>54</ele>
        <time>2025-03-13T19:28:10Z</time>
      </trkpt>
      <trkpt lat="47.36093" lon="-0.52939">
        <ele>65</ele>
        <time>2025-03-13T19:30:45Z</time>
      </trkpt>
      <trkpt lat="47.36092" lon="-0.52947">
        <ele>65</ele>
        <time>2025-03-13T19:30:49Z</time>
      </trkpt>
      <trkpt lat="47.36085" lon="-0.52982">
        <ele>66</ele>
        <time>2025-03-13T19:31:09Z</time>
      </trkpt>
      <trkpt lat="47.36071" lon="-0.53075">
        <ele>71</ele>
        <time>2025-03-13T19:32:01Z</time>
      </trkpt>
      <trkpt lat="47.36063" lon="-0.53121">
        <ele>73</ele>
        <time>2025-03-13T19:32:26Z</time>
      </trkpt>
      <trkpt lat="47.36045" lon="-0.53193">
        <ele>75</ele>
        <time>2025-03-13T19:33:08Z</time>
      </trkpt>
      <trkpt lat="47.36005" lon="-0.53311">
        <ele>78</ele>
        <time>2025-03-13T19:34:20Z</time>
      </trkpt>
      <trkpt lat="47.35987" lon="-0.53387">
        <ele>80</ele>
        <time>2025-03-13T19:35:03Z</time>
      </trkpt>
      <trkpt lat="47.35984" lon="-0.53386">
        <ele>80</ele>
        <time>2025-03-13T19:35:06Z</time>
      </trkpt>
      <trkpt lat="47.35942" lon="-0.53371">
        <ele>80</ele>
        <time>2025-03-13T19:35:40Z</time>
      </trkpt>
      <trkpt lat="47.35896" lon="-0.53359">
        <ele>80</ele>
        <time>2025-03-13T19:36:18Z</time>
      </trkpt>
      <trkpt lat="47.35825" lon="-0.5333">
        <ele>80</ele>
        <time>2025-03-13T19:37:17Z</time>
      </trkpt>
      <trkpt lat="47.35763" lon="-0.53307">
        <ele>78</ele>
        <time>2025-03-13T19:38:08Z</time>
      </trkpt>
      <trkpt lat="47.35712" lon="-0.53296">
        <ele>78</ele>
        <time>2025-03-13T19:38:49Z</time>
      </trkpt>
      <trkpt lat="47.35705" lon="-0.53296">
        <ele>79</ele>
        <time>2025-03-13T19:38:55Z</time>
      </trkpt>
      <trkpt lat="47.35675" lon="-0.53293">
        <ele>79</ele>
        <time>2025-03-13T19:39:19Z</time>
      </trkpt>
      <trkpt lat="47.35618" lon="-0.53277">
        <ele>80</ele>
        <time>2025-03-13T19:40:05Z</time>
      </trkpt>
      <trkpt lat="47.35605" lon="-0.53271">
        <ele>80</ele>
        <time>2025-03-13T19:40:16Z</time>
      </trkpt>
      <trkpt lat="47.3558" lon="-0.53257">
        <ele>81</ele>
        <time>2025-03-13T19:40:38Z</time>
      </trkpt>
      <trkpt lat="47.35533" lon="-0.53229">
        <ele>81</ele>
        <time>2025-03-13T19:41:18Z</time>
      </trkpt>
      <trkpt lat="47.35495" lon="-0.53212">
        <ele>80</ele>
        <time>2025-03-13T19:41:50Z</time>
      </trkpt>
      <trkpt lat="47.35492" lon="-0.53207">
        <ele>80</ele>
        <time>2025-03-13T19:41:54Z</time>
      </trkpt>
      <trkpt lat="47.35443" lon="-0.5319">
        <ele>79</ele>
        <time>2025-03-13T19:42:34Z</time>
      </trkpt>
      <trkpt lat="47.35365" lon="-0.53175">
        <ele>79</ele>
        <time>2025-03-13T19:43:37Z</time>
      </trkpt>
      <trkpt lat="47.35295" lon="-0.53156">
        <ele>79</ele>
        <time>2025-03-13T19:44:34Z</time>
      </trkpt>
      <trkpt lat="47.35227" lon="-0.5313">
        <ele>79</ele>
        <time>2025-03-13T19:45:30Z</time>
      </trkpt>
      <trkpt lat="47.35185" lon="-0.53102">
        <ele>78</ele>
        <time>2025-03-13T19:46:07Z</time>
      </trkpt>
      <trkpt lat="47.35151" lon="-0.5307">
        <ele>77</ele>
        <time>2025-03-13T19:46:39Z</time>
      </trkpt>
      <trkpt lat="47.35131" lon="-0.53048">
        <ele>77</ele>
        <time>2025-03-13T19:46:59Z</time>
      </trkpt>
      <trkpt lat="47.35154" lon="-0.53011">
        <ele>78</ele>
        <time>2025-03-13T19:47:27Z</time>
      </trkpt>
      <trkpt lat="47.35158" lon="-0.53003">
        <ele>78</ele>
        <time>2025-03-13T19:47:32Z</time>
      </trkpt>
      <trkpt lat="47.35158" lon="-0.52994">
        <ele>78</ele>
        <time>2025-03-13T19:47:37Z</time>
      </trkpt>
      <trkpt lat="47.35166" lon="-0.5299">
        <ele>78</ele>
        <time>2025-03-13T19:47:44Z</time>
      </trkpt>
      <trkpt lat="47.35158" lon="-0.52994">
        <ele>78</ele>
        <time>2025-03-13T19:47:50Z</time>
      </trkpt>
      <trkpt lat="47.35149" lon="-0.52996">
        <ele>78</ele>
        <time>2025-03-13T19:47:58Z</time>
      </trkpt>
      <trkpt lat="47.35137" lon="-0.52997">
        <ele>77</ele>
        <time>2025-03-13T19:48:07Z</time>
      </trkpt>
      <trkpt lat="47.35011" lon="-0.52998">
        <ele>75</ele>
        <time>2025-03-13T19:49:48Z</time>
      </trkpt>
      <trkpt lat="47.35003" lon="-0.52998">
        <ele>75</ele>
        <time>2025-03-13T19:49:55Z</time>
      </trkpt>
      <trkpt lat="47.34885" lon="-0.53001">
        <ele>79</ele>
        <time>2025-03-13T19:51:29Z</time>
      </trkpt>
      <trkpt lat="47.34857" lon="-0.53003">
        <ele>80</ele>
        <time>2025-03-13T19:51:51Z</time>
      </trkpt>
      <trkpt lat="47.34824" lon="-0.53008">
        <ele>80</ele>
        <time>2025-03-13T19:52:18Z</time>
      </trkpt>
      <trkpt lat="47.34819" lon="-0.53009">
        <ele>80</ele>
        <time>2025-03-13T19:52:22Z</time>
      </trkpt>
      <trkpt lat="47.34718" lon="-0.53027">
        <ele>82</ele>
        <time>2025-03-13T19:53:44Z</time>
      </trkpt>
      <trkpt lat="47.34691" lon="-0.5303">
        <ele>82</ele>
        <time>2025-03-13T19:54:05Z</time>
      </trkpt>
      <trkpt lat="47.34677" lon="-0.53029">
        <ele>83</ele>
        <time>2025-03-13T19:54:16Z</time>
      </trkpt>
      <trkpt lat="47.34336" lon="-0.52977">
        <ele>90</ele>
        <time>2025-03-13T19:58:51Z</time>
      </trkpt>
      <trkpt lat="47.34311" lon="-0.52972">
        <ele>91</ele>
        <time>2025-03-13T19:59:11Z</time>
      </trkpt>
      <trkpt lat="47.34301" lon="-0.52969">
        <ele>91</ele>
        <time>2025-03-13T19:59:19Z</time>
      </trkpt>
      <trkpt lat="47.34298" lon="-0.52968">
        <ele>91</ele>
        <time>2025-03-13T19:59:22Z</time>
      </trkpt>
      <trkpt lat="47.34278" lon="-0.52954">
        <ele>92</ele>
        <time>2025-03-13T19:59:39Z</time>
      </trkpt>
      <trkpt lat="47.34275" lon="-0.52953">
        <ele>92</ele>
        <time>2025-03-13T19:59:42Z</time>
      </trkpt>
      <trkpt lat="47.34273" lon="-0.52952">
        <ele>92</ele>
        <time>2025-03-13T19:59:44Z</time>
      </trkpt>
      <trkpt lat="47.34273" lon="-0.52937">
        <ele>92</ele>
        <time>2025-03-13T19:59:52Z</time>
      </trkpt>
      <trkpt lat="47.3427" lon="-0.5292">
        <ele>92</ele>
        <time>2025-03-13T20:00:01Z</time>
      </trkpt>
      <trkpt lat="47.34252" lon="-0.52842">
        <ele>92</ele>
        <time>2025-03-13T20:00:46Z</time>
      </trkpt>
      <trkpt lat="47.34222" lon="-0.52724">
        <ele>91</ele>
        <time>2025-03-13T20:01:54Z</time>
      </trkpt>
      <trkpt lat="47.3418" lon="-0.52558">
        <ele>89</ele>
        <time>2025-03-13T20:03:31Z</time>
      </trkpt>
      <trkpt lat="47.34175" lon="-0.52536">
        <ele>88</ele>
        <time>2025-03-13T20:03:43Z</time>
      </trkpt>
      <trkpt lat="47.34174" lon="-0.52519">
        <ele>88</ele>
        <time>2025-03-13T20:03:52Z</time>
      </trkpt>
      <trkpt lat="47.34176" lon="-0.5249">
        <ele>87</ele>
        <time>2025-03-13T20:04:08Z</time>
      </trkpt>
      <trkpt lat="47.34183" lon="-0.52416">
        <ele>87</ele>
        <time>2025-03-13T20:04:49Z</time>
      </trkpt>
      <trkpt lat="47.34184" lon="-0.52389">
        <ele>87</ele>
        <time>2025-03-13T20:05:03Z</time>
      </trkpt>
      <trkpt lat="47.34184" lon="-0.52356">
        <ele>87</ele>
        <time>2025-03-13T20:05:21Z</time>
      </trkpt>
      <trkpt lat="47.34185" lon="-0.52344">
        <ele>87</ele>
        <time>2025-03-13T20:05:28Z</time>
      </trkpt>
      <trkpt lat="47.34185" lon="-0.5234">
        <ele>87</ele>
        <time>2025-03-13T20:05:30Z</time>
      </trkpt>
      <trkpt lat="47.34182" lon="-0.52335">
        <ele>87</ele>
        <time>2025-03-13T20:05:34Z</time>
      </trkpt>
      <trkpt lat="47.34039" lon="-0.51873">
        <ele>93</ele>
        <time>2025-03-13T20:10:09Z</time>
      </trkpt>
      <trkpt lat="47.34036" lon="-0.51862">
        <ele>93</ele>
        <time>2025-03-13T20:10:16Z</time>
      </trkpt>
      <trkpt lat="47.33986" lon="-0.51708">
        <ele>94</ele>
        <time>2025-03-13T20:11:48Z</time>
      </trkpt>
      <trkpt lat="47.3397" lon="-0.51654">
        <ele>92</ele>
        <time>2025-03-13T20:12:20Z</time>
      </trkpt>
      <trkpt lat="47.33959" lon="-0.51605">
        <ele>90</ele>
        <time>2025-03-13T20:12:48Z</time>
      </trkpt>
      <trkpt lat="47.33951" lon="-0.51564">
        <ele>89</ele>
        <time>2025-03-13T20:13:11Z</time>
      </trkpt>
      <trkpt lat="47.33926" lon="-0.51382">
        <ele>87</ele>
        <time>2025-03-13T20:14:52Z</time>
      </trkpt>
      <trkpt lat="47.33924" lon="-0.51344">
        <ele>87</ele>
        <time>2025-03-13T20:15:13Z</time>
      </trkpt>
      <trkpt lat="47.33924" lon="-0.51252">
        <ele>86</ele>
        <time>2025-03-13T20:16:03Z</time>
      </trkpt>
      <trkpt lat="47.33921" lon="-0.51233">
        <ele>85</ele>
        <time>2025-03-13T20:16:13Z</time>
      </trkpt>
      <trkpt lat="47.3392" lon="-0.51227">
        <ele>85</ele>
        <time>2025-03-13T20:16:17Z</time>
      </trkpt>
      <trkpt lat="47.33957" lon="-0.51219">
        <ele>85</ele>
        <time>2025-03-13T20:16:47Z</time>
      </trkpt>
      <trkpt lat="47.34047" lon="-0.51185">
        <ele>82</ele>
        <time>2025-03-13T20:18:01Z</time>
      </trkpt>
      <trkpt lat="47.34055" lon="-0.51174">
        <ele>82</ele>
        <time>2025-03-13T20:18:10Z</time>
      </trkpt>
      <trkpt lat="47.34057" lon="-0.51142">
        <ele>81</ele>
        <time>2025-03-13T20:18:27Z</time>
      </trkpt>
      <trkpt lat="47.34078" lon="-0.51075">
        <ele>78</ele>
        <time>2025-03-13T20:19:07Z</time>
      </trkpt>
      <trkpt lat="47.34088" lon="-0.5107">
        <ele>78</ele>
        <time>2025-03-13T20:19:16Z</time>
      </trkpt>
      <trkpt lat="47.3412" lon="-0.51108">
        <ele>78</ele>
        <time>2025-03-13T20:19:49Z</time>
      </trkpt>
      <trkpt lat="47.34189" lon="-0.50985">
        <ele>74</ele>
        <time>2025-03-13T20:21:15Z</time>
      </trkpt>
      <trkpt lat="47.34208" lon="-0.50969">
        <ele>73</ele>
        <time>2025-03-13T20:21:33Z</time>
      </trkpt>
      <trkpt lat="47.34279" lon="-0.50959">
        <ele>71</ele>
        <time>2025-03-13T20:22:30Z</time>
      </trkpt>
      <trkpt lat="47.34407" lon="-0.50955">
        <ele>70</ele>
        <time>2025-03-13T20:24:12Z</time>
      </trkpt>
      <trkpt lat="47.34466" lon="-0.50959">
        <ele>71</ele>
        <time>2025-03-13T20:25:00Z</time>
      </trkpt>
      <trkpt lat="47.34495" lon="-0.50956">
        <ele>71</ele>
        <time>2025-03-13T20:25:23Z</time>
      </trkpt>
      <trkpt lat="47.34521" lon="-0.50924">
        <ele>71</ele>
        <time>2025-03-13T20:25:50Z</time>
      </trkpt>
      <trkpt lat="47.34547" lon="-0.50878">
        <ele>72</ele>
        <time>2025-03-13T20:26:23Z</time>
      </trkpt>
      <trkpt lat="47.3455" lon="-0.50871">
        <ele>73</ele>
        <time>2025-03-13T20:26:27Z</time>
      </trkpt>
      <trkpt lat="47.34589" lon="-0.50848">
        <ele>73</ele>
        <time>2025-03-13T20:27:01Z</time>
      </trkpt>
      <trkpt lat="47.34618" lon="-0.5083">
        <ele>71</ele>
        <time>2025-03-13T20:27:26Z</time>
      </trkpt>
      <trkpt lat="47.34627" lon="-0.50817">
        <ele>70</ele>
        <time>2025-03-13T20:27:36Z</time>
      </trkpt>
      <trkpt lat="47.34651" lon="-0.50801">
        <ele>68</ele>
        <time>2025-03-13T20:27:57Z</time>
      </trkpt>
      <trkpt lat="47.34716" lon="-0.50776">
        <ele>68</ele>
        <time>2025-03-13T20:28:51Z</time>
      </trkpt>
      <trkpt lat="47.34736" lon="-0.50777">
        <ele>68</ele>
        <time>2025-03-13T20:29:07Z</time>
      </trkpt>
      <trkpt lat="47.34796" lon="-0.5074">
        <ele>68</ele>
        <time>2025-03-13T20:29:59Z</time>
      </trkpt>
      <trkpt lat="47.34822" lon="-0.50718">
        <ele>69</ele>
        <time>2025-03-13T20:30:23Z</time>
      </trkpt>
      <trkpt lat="47.34836" lon="-0.50699">
        <ele>69</ele>
        <time>2025-03-13T20:30:38Z</time>
      </trkpt>
      <trkpt lat="47.3486" lon="-0.5063">
        <ele>67</ele>
        <time>2025-03-13T20:31:20Z</time>
      </trkpt>
      <trkpt lat="47.34878" lon="-0.50598">
        <ele>65</ele>
        <time>2025-03-13T20:31:43Z</time>
      </trkpt>
      <trkpt lat="47.34898" lon="-0.50582">
        <ele>64</ele>
        <time>2025-03-13T20:32:01Z</time>
      </trkpt>
      <trkpt lat="47.34915" lon="-0.50573">
        <ele>64</ele>
        <time>2025-03-13T20:32:16Z</time>
      </trkpt>
      <trkpt lat="47.34935" lon="-0.50554">
        <ele>63</ele>
        <time>2025-03-13T20:32:35Z</time>
      </trkpt>
      <trkpt lat="47.35" lon="-0.50469">
        <ele>61</ele>
        <time>2025-03-13T20:33:44Z</time>
      </trkpt>
      <trkpt lat="47.35032" lon="-0.50426">
        <ele>59</ele>
        <time>2025-03-13T20:34:19Z</time>
      </trkpt>
      <trkpt lat="47.35091" lon="-0.50329">
        <ele>59</ele>
        <time>2025-03-13T20:35:29Z</time>
      </trkpt>
      <trkpt lat="47.351" lon="-0.50318">
        <ele>58</ele>
        <time>2025-03-13T20:35:39Z</time>
      </trkpt>
      <trkpt lat="47.35103" lon="-0.50316">
        <ele>58</ele>
        <time>2025-03-13T20:35:41Z</time>
      </trkpt>
      <trkpt lat="47.35107" lon="-0.50308">
        <ele>58</ele>
        <time>2025-03-13T20:35:47Z</time>
      </trkpt>
      <trkpt lat="47.35118" lon="-0.50274">
        <ele>58</ele>
        <time>2025-03-13T20:36:07Z</time>
      </trkpt>
      <trkpt lat="47.35127" lon="-0.50253">
        <ele>57</ele>
        <time>2025-03-13T20:36:21Z</time>
      </trkpt>
      <trkpt lat="47.35135" lon="-0.50204">
        <ele>56</ele>
        <time>2025-03-13T20:36:48Z</time>
      </trkpt>
      <trkpt lat="47.35138" lon="-0.50205">
        <ele>56</ele>
        <time>2025-03-13T20:36:51Z</time>
      </trkpt>
      <trkpt lat="47.35135" lon="-0.50204">
        <ele>56</ele>
        <time>2025-03-13T20:36:53Z</time>
      </trkpt>
      <trkpt lat="47.35121" lon="-0.50165">
        <ele>55</ele>
        <time>2025-03-13T20:37:17Z</time>
      </trkpt>
      <trkpt lat="47.35118" lon="-0.50152">
        <ele>54</ele>
        <time>2025-03-13T20:37:24Z</time>
      </trkpt>
      <trkpt lat="47.35119" lon="-0.50096">
        <ele>53</ele>
        <time>2025-03-13T20:37:55Z</time>
      </trkpt>
      <trkpt lat="47.35118" lon="-0.50064">
        <ele>52</ele>
        <time>2025-03-13T20:38:12Z</time>
      </trkpt>
      <trkpt lat="47.351" lon="-0.49937">
        <ele>50</ele>
        <time>2025-03-13T20:39:23Z</time>
      </trkpt>
      <trkpt lat="47.35096" lon="-0.49876">
        <ele>48</ele>
        <time>2025-03-13T20:39:56Z</time>
      </trkpt>
      <trkpt lat="47.3509" lon="-0.49817">
        <ele>47</ele>
        <time>2025-03-13T20:40:28Z</time>
      </trkpt>
      <trkpt lat="47.3509" lon="-0.49816">
        <ele>47</ele>
        <time>2025-03-13T20:40:29Z</time>
      </trkpt>
      <trkpt lat="47.35092" lon="-0.49807">
        <ele>47</ele>
        <time>2025-03-13T20:40:34Z</time>
      </trkpt>
      <trkpt lat="47.35116" lon="-0.49784">
        <ele>46</ele>
        <time>2025-03-13T20:40:57Z</time>
      </trkpt>
      <trkpt lat="47.35119" lon="-0.49775">
        <ele>46</ele>
        <time>2025-03-13T20:41:02Z</time>
      </trkpt>
      <trkpt lat="47.35117" lon="-0.49763">
        <ele>46</ele>
        <time>2025-03-13T20:41:09Z</time>
      </trkpt>
      <trkpt lat="47.35103" lon="-0.49717">
        <ele>45</ele>
        <time>2025-03-13T20:41:36Z</time>
      </trkpt>
      <trkpt lat="47.35103" lon="-0.49697">
        <ele>45</ele>
        <time>2025-03-13T20:41:47Z</time>
      </trkpt>
      <trkpt lat="47.35112" lon="-0.49666">
        <ele>45</ele>
        <time>2025-03-13T20:42:05Z</time>
      </trkpt>
      <trkpt lat="47.35114" lon="-0.49664">
        <ele>45</ele>
        <time>2025-03-13T20:42:07Z</time>
      </trkpt>
      <trkpt lat="47.35117" lon="-0.4966">
        <ele>46</ele>
        <time>2025-03-13T20:42:11Z</time>
      </trkpt>
      <trkpt lat="47.3515" lon="-0.49616">
        <ele>48</ele>
        <time>2025-03-13T20:42:46Z</time>
      </trkpt>
      <trkpt lat="47.35159" lon="-0.49597">
        <ele>49</ele>
        <time>2025-03-13T20:42:59Z</time>
      </trkpt>
      <trkpt lat="47.35163" lon="-0.49566">
        <ele>50</ele>
        <time>2025-03-13T20:43:16Z</time>
      </trkpt>
      <trkpt lat="47.35166" lon="-0.49522">
        <ele>51</ele>
        <time>2025-03-13T20:43:40Z</time>
      </trkpt>
      <trkpt lat="47.35176" lon="-0.49474">
        <ele>54</ele>
        <time>2025-03-13T20:44:07Z</time>
      </trkpt>
      <trkpt lat="47.35196" lon="-0.49428">
        <ele>56</ele>
        <time>2025-03-13T20:44:37Z</time>
      </trkpt>
      <trkpt lat="47.35211" lon="-0.49429">
        <ele>56</ele>
        <time>2025-03-13T20:44:49Z</time>
      </trkpt>
      <trkpt lat="47.3523" lon="-0.49424">
        <ele>57</ele>
        <time>2025-03-13T20:45:04Z</time>
      </trkpt>
      <trkpt lat="47.35253" lon="-0.49412">
        <ele>57</ele>
        <time>2025-03-13T20:45:24Z</time>
      </trkpt>
      <trkpt lat="47.35311" lon="-0.49404">
        <ele>50</ele>
        <time>2025-03-13T20:46:10Z</time>
      </trkpt>
      <trkpt lat="47.35342" lon="-0.49402">
        <ele>47</ele>
        <time>2025-03-13T20:46:35Z</time>
      </trkpt>
      <trkpt lat="47.35357" lon="-0.49404">
        <ele>47</ele>
        <time>2025-03-13T20:46:47Z</time>
      </trkpt>
      <trkpt lat="47.35369" lon="-0.49409">
        <ele>46</ele>
        <time>2025-03-13T20:46:57Z</time>
      </trkpt>
      <trkpt lat="47.35378" lon="-0.49413">
        <ele>46</ele>
        <time>2025-03-13T20:47:05Z</time>
      </trkpt>
      <trkpt lat="47.35399" lon="-0.49438">
        <ele>46</ele>
        <time>2025-03-13T20:47:26Z</time>
      </trkpt>
      <trkpt lat="47.35425" lon="-0.49481">
        <ele>46</ele>
        <time>2025-03-13T20:47:58Z</time>
      </trkpt>
      <trkpt lat="47.35462" lon="-0.4953">
        <ele>46</ele>
        <time>2025-03-13T20:48:37Z</time>
      </trkpt>
      <trkpt lat="47.35464" lon="-0.49532">
        <ele>46</ele>
        <time>2025-03-13T20:48:39Z</time>
      </trkpt>
      <trkpt lat="47.35473" lon="-0.49544">
        <ele>46</ele>
        <time>2025-03-13T20:48:49Z</time>
      </trkpt>
      <trkpt lat="47.35504" lon="-0.49573">
        <ele>46</ele>
        <time>2025-03-13T20:49:19Z</time>
      </trkpt>
      <trkpt lat="47.3553" lon="-0.49603">
        <ele>48</ele>
        <time>2025-03-13T20:49:45Z</time>
      </trkpt>
      <trkpt lat="47.3555" lon="-0.49633">
        <ele>50</ele>
        <time>2025-03-13T20:50:08Z</time>
      </trkpt>
      <trkpt lat="47.35588" lon="-0.49706">
        <ele>56</ele>
        <time>2025-03-13T20:50:58Z</time>
      </trkpt>
      <trkpt lat="47.35635" lon="-0.49764">
        <ele>60</ele>
        <time>2025-03-13T20:51:47Z</time>
      </trkpt>
      <trkpt lat="47.35683" lon="-0.49765">
        <ele>61</ele>
        <time>2025-03-13T20:52:25Z</time>
      </trkpt>
      <trkpt lat="47.35698" lon="-0.49761">
        <ele>60</ele>
        <time>2025-03-13T20:52:37Z</time>
      </trkpt>
      <trkpt lat="47.35704" lon="-0.4976">
        <ele>60</ele>
        <time>2025-03-13T20:52:42Z</time>
      </trkpt>
      <trkpt lat="47.35732" lon="-0.49733">
        <ele>58</ele>
        <time>2025-03-13T20:53:09Z</time>
      </trkpt>
      <trkpt lat="47.35812" lon="-0.49649">
        <ele>54</ele>
        <time>2025-03-13T20:54:28Z</time>
      </trkpt>
      <trkpt lat="47.35882" lon="-0.49571">
        <ele>52</ele>
        <time>2025-03-13T20:55:38Z</time>
      </trkpt>
      <trkpt lat="47.35891" lon="-0.49561">
        <ele>52</ele>
        <time>2025-03-13T20:55:47Z</time>
      </trkpt>
      <trkpt lat="47.35974" lon="-0.49493">
        <ele>48</ele>
        <time>2025-03-13T20:57:03Z</time>
      </trkpt>
      <trkpt lat="47.35997" lon="-0.49489">
        <ele>47</ele>
        <time>2025-03-13T20:57:21Z</time>
      </trkpt>
      <trkpt lat="47.36024" lon="-0.49474">
        <ele>47</ele>
        <time>2025-03-13T20:57:44Z</time>
      </trkpt>
      <trkpt lat="47.36071" lon="-0.49406">
        <ele>45</ele>
        <time>2025-03-13T20:58:37Z</time>
      </trkpt>
      <trkpt lat="47.36113" lon="-0.49332">
        <ele>45</ele>
        <time>2025-03-13T20:59:30Z</time>
      </trkpt>
      <trkpt lat="47.36129" lon="-0.49334">
        <ele>46</ele>
        <time>2025-03-13T20:59:42Z</time>
      </trkpt>
      <trkpt lat="47.36229" lon="-0.49334">
        <ele>50</ele>
        <time>2025-03-13T21:01:02Z</time>
      </trkpt>
      <trkpt lat="47.36253" lon="-0.49338">
        <ele>51</ele>
        <time>2025-03-13T21:01:22Z</time>
      </trkpt>
      <trkpt lat="47.36256" lon="-0.49339">
        <ele>51</ele>
        <time>2025-03-13T21:01:24Z</time>
      </trkpt>
      <trkpt lat="47.36253" lon="-0.49338">
        <ele>51</ele>
        <time>2025-03-13T21:01:27Z</time>
      </trkpt>
      <trkpt lat="47.36303" lon="-0.4914">
        <ele>47</ele>
        <time>2025-03-13T21:03:21Z</time>
      </trkpt>
      <trkpt lat="47.36322" lon="-0.49071">
        <ele>46</ele>
        <time>2025-03-13T21:04:02Z</time>
      </trkpt>
      <trkpt lat="47.36327" lon="-0.49034">
        <ele>46</ele>
        <time>2025-03-13T21:04:22Z</time>
      </trkpt>
      <trkpt lat="47.36328" lon="-0.4897">
        <ele>46</ele>
        <time>2025-03-13T21:04:57Z</time>
      </trkpt>
      <trkpt lat="47.36333" lon="-0.48945">
        <ele>47</ele>
        <time>2025-03-13T21:05:11Z</time>
      </trkpt>
      <trkpt lat="47.36385" lon="-0.48811">
        <ele>45</ele>
        <time>2025-03-13T21:06:35Z</time>
      </trkpt>
      <trkpt lat="47.36387" lon="-0.48812">
        <ele>45</ele>
        <time>2025-03-13T21:06:37Z</time>
      </trkpt>
      <trkpt lat="47.36438" lon="-0.48848">
        <ele>45</ele>
        <time>2025-03-13T21:07:22Z</time>
      </trkpt>
      <trkpt lat="47.36527" lon="-0.48926">
        <ele>46</ele>
        <time>2025-03-13T21:08:45Z</time>
      </trkpt>
      <trkpt lat="47.3658" lon="-0.48977">
        <ele>45</ele>
        <time>2025-03-13T21:09:35Z</time>
      </trkpt>
      <trkpt lat="47.36659" lon="-0.49034">
        <ele>41</ele>
        <time>2025-03-13T21:10:46Z</time>
      </trkpt>
      <trkpt lat="47.36689" lon="-0.49062">
        <ele>40</ele>
        <time>2025-03-13T21:11:14Z</time>
      </trkpt>
      <trkpt lat="47.36711" lon="-0.49093">
        <ele>40</ele>
        <time>2025-03-13T21:11:38Z</time>
      </trkpt>
      <trkpt lat="47.36743" lon="-0.49144">
        <ele>40</ele>
        <time>2025-03-13T21:12:16Z</time>
      </trkpt>
      <trkpt lat="47.36755" lon="-0.49154">
        <ele>40</ele>
        <time>2025-03-13T21:12:27Z</time>
      </trkpt>
      <trkpt lat="47.36832" lon="-0.49137">
        <ele>38</ele>
        <time>2025-03-13T21:13:30Z</time>
      </trkpt>
      <trkpt lat="47.36875" lon="-0.49122">
        <ele>37</ele>
        <time>2025-03-13T21:14:05Z</time>
      </trkpt>
      <trkpt lat="47.36928" lon="-0.49102">
        <ele>37</ele>
        <time>2025-03-13T21:14:49Z</time>
      </trkpt>
      <trkpt lat="47.36911" lon="-0.4901">
        <ele>36</ele>
        <time>2025-03-13T21:15:40Z</time>
      </trkpt>
      <trkpt lat="47.37001" lon="-0.4897">
        <ele>36</ele>
        <time>2025-03-13T21:16:56Z</time>
      </trkpt>
      <trkpt lat="47.3699" lon="-0.48905">
        <ele>35</ele>
        <time>2025-03-13T21:17:32Z</time>
      </trkpt>
      <trkpt lat="47.36999" lon="-0.48897">
        <ele>35</ele>
        <time>2025-03-13T21:17:40Z</time>
      </trkpt>
      <trkpt lat="47.37015" lon="-0.48883">
        <ele>34</ele>
        <time>2025-03-13T21:17:55Z</time>
      </trkpt>
      <trkpt lat="47.37032" lon="-0.48863">
        <ele>34</ele>
        <time>2025-03-13T21:18:13Z</time>
      </trkpt>
      <trkpt lat="47.37051" lon="-0.48836">
        <ele>34</ele>
        <time>2025-03-13T21:18:34Z</time>
      </trkpt>
      <trkpt lat="47.37071" lon="-0.48819">
        <ele>34</ele>
        <time>2025-03-13T21:18:52Z</time>
      </trkpt>
      <trkpt lat="47.37121" lon="-0.48791">
        <ele>35</ele>
        <time>2025-03-13T21:19:35Z</time>
      </trkpt>
      <trkpt lat="47.37158" lon="-0.48777">
        <ele>34</ele>
        <time>2025-03-13T21:20:06Z</time>
      </trkpt>
      <trkpt lat="47.37182" lon="-0.48779">
        <ele>34</ele>
        <time>2025-03-13T21:20:25Z</time>
      </trkpt>
      <trkpt lat="47.37206" lon="-0.48785">
        <ele>33</ele>
        <time>2025-03-13T21:20:44Z</time>
      </trkpt>
      <trkpt lat="47.37302" lon="-0.48822">
        <ele>32</ele>
        <time>2025-03-13T21:22:04Z</time>
      </trkpt>
      <trkpt lat="47.37296" lon="-0.48801">
        <ele>32</ele>
        <time>2025-03-13T21:22:16Z</time>
      </trkpt>
      <trkpt lat="47.37289" lon="-0.48766">
        <ele>31</ele>
        <time>2025-03-13T21:22:36Z</time>
      </trkpt>
      <trkpt lat="47.37286" lon="-0.48744">
        <ele>31</ele>
        <time>2025-03-13T21:22:48Z</time>
      </trkpt>
      <trkpt lat="47.37287" lon="-0.48718">
        <ele>31</ele>
        <time>2025-03-13T21:23:02Z</time>
      </trkpt>
      <trkpt lat="47.37288" lon="-0.48684">
        <ele>31</ele>
        <time>2025-03-13T21:23:21Z</time>
      </trkpt>
      <trkpt lat="47.37294" lon="-0.48581">
        <ele>29</ele>
        <time>2025-03-13T21:24:17Z</time>
      </trkpt>
      <trkpt lat="47.37395" lon="-0.48531">
        <ele>28</ele>
        <time>2025-03-13T21:25:42Z</time>
      </trkpt>
      <trkpt lat="47.37404" lon="-0.4853">
        <ele>28</ele>
        <time>2025-03-13T21:25:49Z</time>
      </trkpt>
      <trkpt lat="47.37432" lon="-0.48522">
        <ele>29</ele>
        <time>2025-03-13T21:26:12Z</time>
      </trkpt>
      <trkpt lat="47.37447" lon="-0.48513">
        <ele>30</ele>
        <time>2025-03-13T21:26:25Z</time>
      </trkpt>
      <trkpt lat="47.37459" lon="-0.48499">
        <ele>31</ele>
        <time>2025-03-13T21:26:37Z</time>
      </trkpt>
      <trkpt lat="47.37505" lon="-0.48446">
        <ele>33</ele>
        <time>2025-03-13T21:27:24Z</time>
      </trkpt>
      <trkpt lat="47.37511" lon="-0.48461">
        <ele>34</ele>
        <time>2025-03-13T21:27:34Z</time>
      </trkpt>
      <trkpt lat="47.37584" lon="-0.48658">
        <ele>38</ele>
        <time>2025-03-13T21:29:35Z</time>
      </trkpt>
      <trkpt lat="47.37643" lon="-0.48818">
        <ele>36</ele>
        <time>2025-03-13T21:31:14Z</time>
      </trkpt>
      <trkpt lat="47.37645" lon="-0.48815">
        <ele>36</ele>
        <time>2025-03-13T21:31:16Z</time>
      </trkpt>
      <trkpt lat="47.37643" lon="-0.48818">
        <ele>36</ele>
        <time>2025-03-13T21:31:19Z</time>
      </trkpt>
      <trkpt lat="47.37634" lon="-0.4883">
        <ele>36</ele>
        <time>2025-03-13T21:31:28Z</time>
      </trkpt>
      <trkpt lat="47.37611" lon="-0.48852">
        <ele>35</ele>
        <time>2025-03-13T21:31:50Z</time>
      </trkpt>
      <trkpt lat="47.37574" lon="-0.48874">
        <ele>34</ele>
        <time>2025-03-13T21:32:22Z</time>
      </trkpt>
      <trkpt lat="47.37504" lon="-0.48904">
        <ele>30</ele>
        <time>2025-03-13T21:33:21Z</time>
      </trkpt>
      <trkpt lat="47.37498" lon="-0.48907">
        <ele>30</ele>
        <time>2025-03-13T21:33:26Z</time>
      </trkpt>
      <trkpt lat="47.37501" lon="-0.48928">
        <ele>30</ele>
        <time>2025-03-13T21:33:37Z</time>
      </trkpt>
      <trkpt lat="47.37503" lon="-0.48966">
        <ele>30</ele>
        <time>2025-03-13T21:33:58Z</time>
      </trkpt>
      <trkpt lat="47.37516" lon="-0.49012">
        <ele>31</ele>
        <time>2025-03-13T21:34:25Z</time>
      </trkpt>
      <trkpt lat="47.37519" lon="-0.49029">
        <ele>32</ele>
        <time>2025-03-13T21:34:35Z</time>
      </trkpt>
      <trkpt lat="47.37517" lon="-0.49052">
        <ele>32</ele>
        <time>2025-03-13T21:34:47Z</time>
      </trkpt>
      <trkpt lat="47.37511" lon="-0.49082">
        <ele>32</ele>
        <time>2025-03-13T21:35:04Z</time>
      </trkpt>
      <trkpt lat="47.37501" lon="-0.49107">
        <ele>31</ele>
        <time>2025-03-13T21:35:20Z</time>
      </trkpt>
      <trkpt lat="47.3749" lon="-0.49131">
        <ele>31</ele>
        <time>2025-03-13T21:35:36Z</time>
      </trkpt>
      <trkpt lat="47.37469" lon="-0.49166">
        <ele>30</ele>
        <time>2025-03-13T21:36:01Z</time>
      </trkpt>
      <trkpt lat="47.37455" lon="-0.49196">
        <ele>29</ele>
        <time>2025-03-13T21:36:21Z</time>
      </trkpt>
      <trkpt lat="47.37447" lon="-0.49223">
        <ele>29</ele>
        <time>2025-03-13T21:36:37Z</time>
      </trkpt>
      <trkpt lat="47.37392" lon="-0.4933">
        <ele>29</ele>
        <time>2025-03-13T21:37:49Z</time>
      </trkpt>
      <trkpt lat="47.37371" lon="-0.49385">
        <ele>30</ele>
        <time>2025-03-13T21:38:24Z</time>
      </trkpt>
      <trkpt lat="47.37354" lon="-0.49454">
        <ele>30</ele>
        <time>2025-03-13T21:39:04Z</time>
      </trkpt>
      <trkpt lat="47.37346" lon="-0.49496">
        <ele>30</ele>
        <time>2025-03-13T21:39:27Z</time>
      </trkpt>
      <trkpt lat="47.37338" lon="-0.49529">
        <ele>29</ele>
        <time>2025-03-13T21:39:46Z</time>
      </trkpt>
      <trkpt lat="47.3733" lon="-0.49603">
        <ele>28</ele>
        <time>2025-03-13T21:40:27Z</time>
      </trkpt>
      <trkpt lat="47.37325" lon="-0.49658">
        <ele>28</ele>
        <time>2025-03-13T21:40:57Z</time>
      </trkpt>
      <trkpt lat="47.37328" lon="-0.49711">
        <ele>27</ele>
        <time>2025-03-13T21:41:26Z</time>
      </trkpt>
      <trkpt lat="47.37325" lon="-0.49718">
        <ele>27</ele>
        <time>2025-03-13T21:41:30Z</time>
      </trkpt>
      <trkpt lat="47.37328" lon="-0.4972">
        <ele>27</ele>
        <time>2025-03-13T21:41:33Z</time>
      </trkpt>
      <trkpt lat="47.37332" lon="-0.49726">
        <ele>27</ele>
        <time>2025-03-13T21:41:37Z</time>
      </trkpt>
      <trkpt lat="47.37336" lon="-0.49734">
        <ele>27</ele>
        <time>2025-03-13T21:41:43Z</time>
      </trkpt>
      <trkpt lat="47.3736" lon="-0.498">
        <ele>27</ele>
        <time>2025-03-13T21:42:23Z</time>
      </trkpt>
      <trkpt lat="47.37366" lon="-0.49813">
        <ele>27</ele>
        <time>2025-03-13T21:42:32Z</time>
      </trkpt>
      <trkpt lat="47.37376" lon="-0.49833">
        <ele>27</ele>
        <time>2025-03-13T21:42:45Z</time>
      </trkpt>
      <trkpt lat="47.37387" lon="-0.49847">
        <ele>27</ele>
        <time>2025-03-13T21:42:57Z</time>
      </trkpt>
      <trkpt lat="47.37394" lon="-0.49856">
        <ele>27</ele>
        <time>2025-03-13T21:43:05Z</time>
      </trkpt>
      <trkpt lat="47.3741" lon="-0.49873">
        <ele>27</ele>
        <time>2025-03-13T21:43:20Z</time>
      </trkpt>
      <trkpt lat="47.37412" lon="-0.49875">
        <ele>27</ele>
        <time>2025-03-13T21:43:22Z</time>
      </trkpt>
      <trkpt lat="47.3741" lon="-0.49873">
        <ele>27</ele>
        <time>2025-03-13T21:43:24Z</time>
      </trkpt>
      <trkpt lat="47.37414" lon="-0.49868">
        <ele>27</ele>
        <time>2025-03-13T21:43:28Z</time>
      </trkpt>
      <trkpt lat="47.37451" lon="-0.49847">
        <ele>30</ele>
        <time>2025-03-13T21:44:00Z</time>
      </trkpt>
      <trkpt lat="47.37461" lon="-0.49844">
        <ele>30</ele>
        <time>2025-03-13T21:44:08Z</time>
      </trkpt>
      <trkpt lat="47.37484" lon="-0.4984">
        <ele>32</ele>
        <time>2025-03-13T21:44:27Z</time>
      </trkpt>
      <trkpt lat="47.37493" lon="-0.49837">
        <ele>33</ele>
        <time>2025-03-13T21:44:34Z</time>
      </trkpt>
      <trkpt lat="47.37553" lon="-0.49813">
        <ele>34</ele>
        <time>2025-03-13T21:45:24Z</time>
      </trkpt>
      <trkpt lat="47.37561" lon="-0.49809">
        <ele>34</ele>
        <time>2025-03-13T21:45:31Z</time>
      </trkpt>
      <trkpt lat="47.37694" lon="-0.49759">
        <ele>38</ele>
        <time>2025-03-13T21:47:21Z</time>
      </trkpt>
      <trkpt lat="47.37747" lon="-0.4974">
        <ele>38</ele>
        <time>2025-03-13T21:48:04Z</time>
      </trkpt>
      <trkpt lat="47.37834" lon="-0.49712">
        <ele>38</ele>
        <time>2025-03-13T21:49:16Z</time>
      </trkpt>
      <trkpt lat="47.37933" lon="-0.49678">
        <ele>41</ele>
        <time>2025-03-13T21:50:37Z</time>
      </trkpt>
      <trkpt lat="47.3795" lon="-0.49675">
        <ele>41</ele>
        <time>2025-03-13T21:50:51Z</time>
      </trkpt>
      <trkpt lat="47.3798" lon="-0.49674">
        <ele>41</ele>
        <time>2025-03-13T21:51:15Z</time>
      </trkpt>
      <trkpt lat="47.38014" lon="-0.49668">
        <ele>41</ele>
        <time>2025-03-13T21:51:42Z</time>
      </trkpt>
      <trkpt lat="47.38067" lon="-0.49657">
        <ele>43</ele>
        <time>2025-03-13T21:52:25Z</time>
      </trkpt>
      <trkpt lat="47.38088" lon="-0.49655">
        <ele>43</ele>
        <time>2025-03-13T21:52:42Z</time>
      </trkpt>
      <trkpt lat="47.38124" lon="-0.49652">
        <ele>45</ele>
        <time>2025-03-13T21:53:11Z</time>
      </trkpt>
      <trkpt lat="47.38157" lon="-0.49647">
        <ele>46</ele>
        <time>2025-03-13T21:53:37Z</time>
      </trkpt>
      <trkpt lat="47.38193" lon="-0.49639">
        <ele>48</ele>
        <time>2025-03-13T21:54:06Z</time>
      </trkpt>
      <trkpt lat="47.38286" lon="-0.49605">
        <ele>52</ele>
        <time>2025-03-13T21:55:23Z</time>
      </trkpt>
      <trkpt lat="47.38326" lon="-0.49587">
        <ele>53</ele>
        <time>2025-03-13T21:55:57Z</time>
      </trkpt>
      <trkpt lat="47.384" lon="-0.49547">
        <ele>54</ele>
        <time>2025-03-13T21:57:00Z</time>
      </trkpt>
      <trkpt lat="47.38418" lon="-0.49541">
        <ele>55</ele>
        <time>2025-03-13T21:57:14Z</time>
      </trkpt>
      <trkpt lat="47.38503" lon="-0.4953">
        <ele>56</ele>
        <time>2025-03-13T21:58:23Z</time>
      </trkpt>
      <trkpt lat="47.38512" lon="-0.49525">
        <ele>56</ele>
        <time>2025-03-13T21:58:30Z</time>
      </trkpt>
      <trkpt lat="47.38515" lon="-0.49521">
        <ele>56</ele>
        <time>2025-03-13T21:58:34Z</time>
      </trkpt>
      <trkpt lat="47.38518" lon="-0.49526">
        <ele>55</ele>
        <time>2025-03-13T21:58:37Z</time>
      </trkpt>
      <trkpt lat="47.38522" lon="-0.49539">
        <ele>55</ele>
        <time>2025-03-13T21:58:45Z</time>
      </trkpt>
      <trkpt lat="47.38524" lon="-0.49558">
        <ele>55</ele>
        <time>2025-03-13T21:58:55Z</time>
      </trkpt>
      <trkpt lat="47.38528" lon="-0.49631">
        <ele>54</ele>
        <time>2025-03-13T21:59:35Z</time>
      </trkpt>
      <trkpt lat="47.38531" lon="-0.4965">
        <ele>54</ele>
        <time>2025-03-13T21:59:46Z</time>
      </trkpt>
      <trkpt lat="47.38532" lon="-0.49657">
        <ele>54</ele>
        <time>2025-03-13T21:59:50Z</time>
      </trkpt>
      <trkpt lat="47.38555" lon="-0.49793">
        <ele>54</ele>
        <time>2025-03-13T22:01:06Z</time>
      </trkpt>
      <trkpt lat="47.38564" lon="-0.49839">
        <ele>54</ele>
        <time>2025-03-13T22:01:32Z</time>
      </trkpt>
      <trkpt lat="47.38569" lon="-0.49865">
        <ele>53</ele>
        <time>2025-03-13T22:01:46Z</time>
      </trkpt>
      <trkpt lat="47.38581" lon="-0.49919">
        <ele>53</ele>
        <time>2025-03-13T22:02:17Z</time>
      </trkpt>
      <trkpt lat="47.38583" lon="-0.49941">
        <ele>53</ele>
        <time>2025-03-13T22:02:29Z</time>
      </trkpt>
      <trkpt lat="47.38582" lon="-0.50065">
        <ele>51</ele>
        <time>2025-03-13T22:03:36Z</time>
      </trkpt>
      <trkpt lat="47.38582" lon="-0.50067">
        <ele>51</ele>
        <time>2025-03-13T22:03:37Z</time>
      </trkpt>
      <trkpt lat="47.38574" lon="-0.50074">
        <ele>51</ele>
        <time>2025-03-13T22:03:45Z</time>
      </trkpt>
      <trkpt lat="47.38563" lon="-0.5008">
        <ele>51</ele>
        <time>2025-03-13T22:03:54Z</time>
      </trkpt>
      <trkpt lat="47.38546" lon="-0.5008">
        <ele>51</ele>
        <time>2025-03-13T22:04:08Z</time>
      </trkpt>
      <trkpt lat="47.38491" lon="-0.50085">
        <ele>52</ele>
        <time>2025-03-13T22:04:52Z</time>
      </trkpt>
      <trkpt lat="47.38441" lon="-0.50096">
        <ele>51</ele>
        <time>2025-03-13T22:05:32Z</time>
      </trkpt>
      <trkpt lat="47.38365" lon="-0.50122">
        <ele>48</ele>
        <time>2025-03-13T22:06:35Z</time>
      </trkpt>
      <trkpt lat="47.38332" lon="-0.50147">
        <ele>48</ele>
        <time>2025-03-13T22:07:05Z</time>
      </trkpt>
      <trkpt lat="47.38329" lon="-0.50148">
        <ele>48</ele>
        <time>2025-03-13T22:07:07Z</time>
      </trkpt>
      <trkpt lat="47.38332" lon="-0.50166">
        <ele>48</ele>
        <time>2025-03-13T22:07:17Z</time>
      </trkpt>
      <trkpt lat="47.38331" lon="-0.50236">
        <ele>48</ele>
        <time>2025-03-13T22:07:55Z</time>
      </trkpt>
      <trkpt lat="47.38337" lon="-0.50374">
        <ele>50</ele>
        <time>2025-03-13T22:09:10Z</time>
      </trkpt>
      <trkpt lat="47.38342" lon="-0.504">
        <ele>51</ele>
        <time>2025-03-13T22:09:25Z</time>
      </trkpt>
      <trkpt lat="47.3838" lon="-0.50537">
        <ele>51</ele>
        <time>2025-03-13T22:10:45Z</time>
      </trkpt>
      <trkpt lat="47.38381" lon="-0.50544">
        <ele>51</ele>
        <time>2025-03-13T22:10:49Z</time>
      </trkpt>
      <trkpt lat="47.38382" lon="-0.50557">
        <ele>50</ele>
        <time>2025-03-13T22:10:56Z</time>
      </trkpt>
      <trkpt lat="47.38386" lon="-0.50569">
        <ele>50</ele>
        <time>2025-03-13T22:11:03Z</time>
      </trkpt>
      <trkpt lat="47.38383" lon="-0.50572">
        <ele>50</ele>
        <time>2025-03-13T22:11:06Z</time>
      </trkpt>
      <trkpt lat="47.38365" lon="-0.5061">
        <ele>49</ele>
        <time>2025-03-13T22:11:31Z</time>
      </trkpt>
      <trkpt lat="47.38358" lon="-0.50621">
        <ele>49</ele>
        <time>2025-03-13T22:11:39Z</time>
      </trkpt>
      <trkpt lat="47.38327" lon="-0.50643">
        <ele>48</ele>
        <time>2025-03-13T22:12:07Z</time>
      </trkpt>
      <trkpt lat="47.38316" lon="-0.50649">
        <ele>48</ele>
        <time>2025-03-13T22:12:16Z</time>
      </trkpt>
      <trkpt lat="47.38308" lon="-0.50649">
        <ele>48</ele>
        <time>2025-03-13T22:12:23Z</time>
      </trkpt>
      <trkpt lat="47.38299" lon="-0.50646">
        <ele>48</ele>
        <time>2025-03-13T22:12:30Z</time>
      </trkpt>
      <trkpt lat="47.38254" lon="-0.50624">
        <ele>48</ele>
        <time>2025-03-13T22:13:08Z</time>
      </trkpt>
      <trkpt lat="47.38236" lon="-0.50621">
        <ele>48</ele>
        <time>2025-03-13T22:13:23Z</time>
      </trkpt>
      <trkpt lat="47.38204" lon="-0.50623">
        <ele>46</ele>
        <time>2025-03-13T22:13:48Z</time>
      </trkpt>
      <trkpt lat="47.38153" lon="-0.50631">
        <ele>44</ele>
        <time>2025-03-13T22:14:29Z</time>
      </trkpt>
      <trkpt lat="47.38102" lon="-0.5064">
        <ele>42</ele>
        <time>2025-03-13T22:15:10Z</time>
      </trkpt>
      <trkpt lat="47.38082" lon="-0.50656">
        <ele>41</ele>
        <time>2025-03-13T22:15:29Z</time>
      </trkpt>
      <trkpt lat="47.38061" lon="-0.50685">
        <ele>40</ele>
        <time>2025-03-13T22:15:52Z</time>
      </trkpt>
      <trkpt lat="47.38066" lon="-0.50695">
        <ele>40</ele>
        <time>2025-03-13T22:15:58Z</time>
      </trkpt>
      <trkpt lat="47.38068" lon="-0.50837">
        <ele>41</ele>
        <time>2025-03-13T22:17:15Z</time>
      </trkpt>
      <trkpt lat="47.38052" lon="-0.50858">
        <ele>42</ele>
        <time>2025-03-13T22:17:33Z</time>
      </trkpt>
      <trkpt lat="47.38042" lon="-0.51034">
        <ele>52</ele>
        <time>2025-03-13T22:19:08Z</time>
      </trkpt>
      <trkpt lat="47.38072" lon="-0.51128">
        <ele>55</ele>
        <time>2025-03-13T22:20:05Z</time>
      </trkpt>
      <trkpt lat="47.38049" lon="-0.51197">
        <ele>56</ele>
        <time>2025-03-13T22:20:46Z</time>
      </trkpt>
      <trkpt lat="47.3792" lon="-0.51212">
        <ele>53</ele>
        <time>2025-03-13T22:22:30Z</time>
      </trkpt>
      <trkpt lat="47.37876" lon="-0.51238">
        <ele>49</ele>
        <time>2025-03-13T22:23:08Z</time>
      </trkpt>
      <trkpt lat="47.37745" lon="-0.51335">
        <ele>45</ele>
        <time>2025-03-13T22:25:05Z</time>
      </trkpt>
      <trkpt lat="47.37675" lon="-0.51394">
        <ele>46</ele>
        <time>2025-03-13T22:26:10Z</time>
      </trkpt>
      <trkpt lat="47.37498" lon="-0.51495">
        <ele>25</ele>
        <time>2025-03-13T22:28:42Z</time>
      </trkpt>
      <trkpt lat="47.37512" lon="-0.51501">
        <ele>26</ele>
        <time>2025-03-13T22:28:53Z</time>
      </trkpt>
      <trkpt lat="47.37527" lon="-0.51506">
        <ele>28</ele>
        <time>2025-03-13T22:29:06Z</time>
      </trkpt>
      <trkpt lat="47.37526" lon="-0.51514">
        <ele>28</ele>
        <time>2025-03-13T22:29:10Z</time>
      </trkpt>
      <trkpt lat="47.37541" lon="-0.51604">
        <ele>26</ele>
        <time>2025-03-13T22:30:00Z</time>
      </trkpt>
      <trkpt lat="47.37555" lon="-0.51652">
        <ele>27</ele>
        <time>2025-03-13T22:30:29Z</time>
      </trkpt>
      <trkpt lat="47.37577" lon="-0.51738">
        <ele>24</ele>
        <time>2025-03-13T22:31:19Z</time>
      </trkpt>
      <trkpt lat="47.37592" lon="-0.5177">
        <ele>24</ele>
        <time>2025-03-13T22:31:40Z</time>
      </trkpt>
      <trkpt lat="47.37589" lon="-0.51799">
        <ele>23</ele>
        <time>2025-03-13T22:31:56Z</time>
      </trkpt>
      <trkpt lat="47.37547" lon="-0.51855">
        <ele>22</ele>
        <time>2025-03-13T22:32:41Z</time>
      </trkpt>
      <trkpt lat="47.37529" lon="-0.51875">
        <ele>22</ele>
        <time>2025-03-13T22:32:59Z</time>
      </trkpt>
      <trkpt lat="47.37515" lon="-0.51885">
        <ele>23</ele>
        <time>2025-03-13T22:33:11Z</time>
      </trkpt>
      <trkpt lat="47.3751" lon="-0.51895">
        <ele>23</ele>
        <time>2025-03-13T22:33:18Z</time>
      </trkpt>
      <trkpt lat="47.37478" lon="-0.51926">
        <ele>24</ele>
        <time>2025-03-13T22:33:49Z</time>
      </trkpt>
      <trkpt lat="47.37473" lon="-0.51933">
        <ele>25</ele>
        <time>2025-03-13T22:33:54Z</time>
      </trkpt>
      <trkpt lat="47.37469" lon="-0.51948">
        <ele>25</ele>
        <time>2025-03-13T22:34:03Z</time>
      </trkpt>
      <trkpt lat="47.37471" lon="-0.51973">
        <ele>25</ele>
        <time>2025-03-13T22:34:17Z</time>
      </trkpt>
      <trkpt lat="47.3747" lon="-0.51981">
        <ele>26</ele>
        <time>2025-03-13T22:34:21Z</time>
      </trkpt>
      <trkpt lat="47.37468" lon="-0.51995">
        <ele>26</ele>
        <time>2025-03-13T22:34:29Z</time>
      </trkpt>
      <trkpt lat="47.37447" lon="-0.52071">
        <ele>29</ele>
        <time>2025-03-13T22:35:13Z</time>
      </trkpt>
      <trkpt lat="47.37434" lon="-0.52131">
        <ele>31</ele>
        <time>2025-03-13T22:35:47Z</time>
      </trkpt>
      <trkpt lat="47.37434" lon="-0.52152">
        <ele>32</ele>
        <time>2025-03-13T22:35:59Z</time>
      </trkpt>
      <trkpt lat="47.37439" lon="-0.52165">
        <ele>32</ele>
        <time>2025-03-13T22:36:07Z</time>
      </trkpt>
      <trkpt lat="47.37451" lon="-0.52189">
        <ele>33</ele>
        <time>2025-03-13T22:36:23Z</time>
      </trkpt>
      <trkpt lat="47.37479" lon="-0.52208">
        <ele>33</ele>
        <time>2025-03-13T22:36:48Z</time>
      </trkpt>
      <trkpt lat="47.37493" lon="-0.52215">
        <ele>33</ele>
        <time>2025-03-13T22:37:00Z</time>
      </trkpt>
      <trkpt lat="47.37519" lon="-0.52218">
        <ele>35</ele>
        <time>2025-03-13T22:37:21Z</time>
      </trkpt>
      <trkpt lat="47.37548" lon="-0.52219">
        <ele>36</ele>
        <time>2025-03-13T22:37:44Z</time>
      </trkpt>
      <trkpt lat="47.37569" lon="-0.52223">
        <ele>37</ele>
        <time>2025-03-13T22:38:01Z</time>
      </trkpt>
      <trkpt lat="47.37631" lon="-0.52257">
        <ele>41</ele>
        <time>2025-03-13T22:38:54Z</time>
      </trkpt>
      <trkpt lat="47.37649" lon="-0.52258">
        <ele>42</ele>
        <time>2025-03-13T22:39:08Z</time>
      </trkpt>
      <trkpt lat="47.37654" lon="-0.52259">
        <ele>42</ele>
        <time>2025-03-13T22:39:12Z</time>
      </trkpt>
      <trkpt lat="47.37684" lon="-0.52255">
        <ele>43</ele>
        <time>2025-03-13T22:39:36Z</time>
      </trkpt>
      <trkpt lat="47.37729" lon="-0.52246">
        <ele>43</ele>
        <time>2025-03-13T22:40:13Z</time>
      </trkpt>
      <trkpt lat="47.37733" lon="-0.52258">
        <ele>43</ele>
        <time>2025-03-13T22:40:20Z</time>
      </trkpt>
      <trkpt lat="47.3774" lon="-0.52256">
        <ele>43</ele>
        <time>2025-03-13T22:40:26Z</time>
      </trkpt>
      <trkpt lat="47.37776" lon="-0.52258">
        <ele>43</ele>
        <time>2025-03-13T22:40:54Z</time>
      </trkpt>
      <trkpt lat="47.37781" lon="-0.52256">
        <ele>43</ele>
        <time>2025-03-13T22:40:59Z</time>
      </trkpt>
      <trkpt lat="47.37786" lon="-0.52252">
        <ele>43</ele>
        <time>2025-03-13T22:41:03Z</time>
      </trkpt>
      <trkpt lat="47.3782" lon="-0.52207">
        <ele>42</ele>
        <time>2025-03-13T22:41:40Z</time>
      </trkpt>
      <trkpt lat="47.37834" lon="-0.52202">
        <ele>42</ele>
        <time>2025-03-13T22:41:51Z</time>
      </trkpt>
      <trkpt lat="47.37843" lon="-0.52205">
        <ele>43</ele>
        <time>2025-03-13T22:41:59Z</time>
      </trkpt>
      <trkpt lat="47.37844" lon="-0.52207">
        <ele>43</ele>
        <time>2025-03-13T22:42:00Z</time>
      </trkpt>
      <trkpt lat="47.37858" lon="-0.52254">
        <ele>43</ele>
        <time>2025-03-13T22:42:28Z</time>
      </trkpt>
      <trkpt lat="47.37873" lon="-0.52307">
        <ele>42</ele>
        <time>2025-03-13T22:42:59Z</time>
      </trkpt>
      <trkpt lat="47.37903" lon="-0.52402">
        <ele>38</ele>
        <time>2025-03-13T22:43:56Z</time>
      </trkpt>
      <trkpt lat="47.37904" lon="-0.52406">
        <ele>38</ele>
        <time>2025-03-13T22:43:58Z</time>
      </trkpt>
      <trkpt lat="47.37935" lon="-0.52407">
        <ele>36</ele>
        <time>2025-03-13T22:44:23Z</time>
      </trkpt>
      <trkpt lat="47.3796" lon="-0.52413">
        <ele>35</ele>
        <time>2025-03-13T22:44:43Z</time>
      </trkpt>
      <trkpt lat="47.3799" lon="-0.52424">
        <ele>32</ele>
        <time>2025-03-13T22:45:08Z</time>
      </trkpt>
      <trkpt lat="47.3801" lon="-0.52433">
        <ele>31</ele>
        <time>2025-03-13T22:45:25Z</time>
      </trkpt>
      <trkpt lat="47.38026" lon="-0.52444">
        <ele>30</ele>
        <time>2025-03-13T22:45:39Z</time>
      </trkpt>
      <trkpt lat="47.38064" lon="-0.52478">
        <ele>27</ele>
        <time>2025-03-13T22:46:14Z</time>
      </trkpt>
      <trkpt lat="47.38084" lon="-0.52499">
        <ele>25</ele>
        <time>2025-03-13T22:46:34Z</time>
      </trkpt>
      <trkpt lat="47.3812" lon="-0.52542">
        <ele>24</ele>
        <time>2025-03-13T22:47:11Z</time>
      </trkpt>
      <trkpt lat="47.38119" lon="-0.52543">
        <ele>24</ele>
        <time>2025-03-13T22:47:12Z</time>
      </trkpt>
      <trkpt lat="47.3807" lon="-0.5261">
        <ele>23</ele>
        <time>2025-03-13T22:48:05Z</time>
      </trkpt>
      <trkpt lat="47.37979" lon="-0.52672">
        <ele>28</ele>
        <time>2025-03-13T22:49:26Z</time>
      </trkpt>
      <trkpt lat="47.37871" lon="-0.5272">
        <ele>34</ele>
        <time>2025-03-13T22:50:56Z</time>
      </trkpt>
      <trkpt lat="47.37831" lon="-0.52735">
        <ele>36</ele>
        <time>2025-03-13T22:51:29Z</time>
      </trkpt>
      <trkpt lat="47.37745" lon="-0.52724">
        <ele>42</ele>
        <time>2025-03-13T22:52:38Z</time>
      </trkpt>
      <trkpt lat="47.37721" lon="-0.5271">
        <ele>42</ele>
        <time>2025-03-13T22:52:59Z</time>
      </trkpt>
      <trkpt lat="47.37645" lon="-0.52718">
        <ele>45</ele>
        <time>2025-03-13T22:54:00Z</time>
      </trkpt>
      <trkpt lat="47.37647" lon="-0.52809">
        <ele>48</ele>
        <time>2025-03-13T22:54:49Z</time>
      </trkpt>
      <trkpt lat="47.3763" lon="-0.52839">
        <ele>49</ele>
        <time>2025-03-13T22:55:10Z</time>
      </trkpt>
      <trkpt lat="47.37568" lon="-0.52922">
        <ele>50</ele>
        <time>2025-03-13T22:56:17Z</time>
      </trkpt>
      <trkpt lat="47.37556" lon="-0.52932">
        <ele>50</ele>
        <time>2025-03-13T22:56:28Z</time>
      </trkpt>
      <trkpt lat="47.3753" lon="-0.52945">
        <ele>51</ele>
        <time>2025-03-13T22:56:50Z</time>
      </trkpt>
      <trkpt lat="47.37488" lon="-0.52974">
        <ele>53</ele>
        <time>2025-03-13T22:57:28Z</time>
      </trkpt>
      <trkpt lat="47.37478" lon="-0.52982">
        <ele>54</ele>
        <time>2025-03-13T22:57:37Z</time>
      </trkpt>
      <trkpt lat="47.3747" lon="-0.52991">
        <ele>54</ele>
        <time>2025-03-13T22:57:45Z</time>
      </trkpt>
      <trkpt lat="47.37464" lon="-0.53001">
        <ele>55</ele>
        <time>2025-03-13T22:57:52Z</time>
      </trkpt>
      <trkpt lat="47.37453" lon="-0.53021">
        <ele>55</ele>
        <time>2025-03-13T22:58:06Z</time>
      </trkpt>
      <trkpt lat="47.37444" lon="-0.53049">
        <ele>56</ele>
        <time>2025-03-13T22:58:23Z</time>
      </trkpt>
      <trkpt lat="47.37422" lon="-0.53127">
        <ele>58</ele>
        <time>2025-03-13T22:59:09Z</time>
      </trkpt>
      <trkpt lat="47.37409" lon="-0.53163">
        <ele>59</ele>
        <time>2025-03-13T22:59:31Z</time>
      </trkpt>
      <trkpt lat="47.37394" lon="-0.53199">
        <ele>58</ele>
        <time>2025-03-13T22:59:54Z</time>
      </trkpt>
      <trkpt lat="47.37371" lon="-0.53246">
        <ele>58</ele>
        <time>2025-03-13T23:00:25Z</time>
      </trkpt>
      <trkpt lat="47.37357" lon="-0.53271">
        <ele>57</ele>
        <time>2025-03-13T23:00:43Z</time>
      </trkpt>
      <trkpt lat="47.37331" lon="-0.53308">
        <ele>57</ele>
        <time>2025-03-13T23:01:12Z</time>
      </trkpt>
      <trkpt lat="47.37313" lon="-0.53327">
        <ele>58</ele>
        <time>2025-03-13T23:01:29Z</time>
      </trkpt>
      <trkpt lat="47.37297" lon="-0.53347">
        <ele>58</ele>
        <time>2025-03-13T23:01:46Z</time>
      </trkpt>
      <trkpt lat="47.37281" lon="-0.53362">
        <ele>58</ele>
        <time>2025-03-13T23:02:01Z</time>
      </trkpt>
      <trkpt lat="47.37258" lon="-0.53374">
        <ele>59</ele>
        <time>2025-03-13T23:02:21Z</time>
      </trkpt>
      <trkpt lat="47.37232" lon="-0.53385">
        <ele>59</ele>
        <time>2025-03-13T23:02:42Z</time>
      </trkpt>
      <trkpt lat="47.37193" lon="-0.53398">
        <ele>60</ele>
        <time>2025-03-13T23:03:14Z</time>
      </trkpt>
      <trkpt lat="47.37171" lon="-0.53402">
        <ele>60</ele>
        <time>2025-03-13T23:03:32Z</time>
      </trkpt>
      <trkpt lat="47.3714" lon="-0.53404">
        <ele>61</ele>
        <time>2025-03-13T23:03:57Z</time>
      </trkpt>
      <trkpt lat="47.37108" lon="-0.53403">
        <ele>61</ele>
        <time>2025-03-13T23:04:23Z</time>
      </trkpt>
      <trkpt lat="47.37107" lon="-0.534">
        <ele>61</ele>
        <time>2025-03-13T23:04:24Z</time>
      </trkpt>
      <trkpt lat="47.3707" lon="-0.53309">
        <ele>61</ele>
        <time>2025-03-13T23:05:22Z</time>
      </trkpt>
      <trkpt lat="47.37045" lon="-0.53258">
        <ele>60</ele>
        <time>2025-03-13T23:05:56Z</time>
      </trkpt>
      <trkpt lat="47.37015" lon="-0.532">
        <ele>60</ele>
        <time>2025-03-13T23:06:36Z</time>
      </trkpt>
      <trkpt lat="47.36999" lon="-0.53177">
        <ele>60</ele>
        <time>2025-03-13T23:06:54Z</time>
      </trkpt>
      <trkpt lat="47.36995" lon="-0.53171">
        <ele>60</ele>
        <time>2025-03-13T23:06:58Z</time>
      </trkpt>
      <trkpt lat="47.36947" lon="-0.53168">
        <ele>59</ele>
        <time>2025-03-13T23:07:37Z</time>
      </trkpt>
      <trkpt lat="47.36904" lon="-0.53172">
        <ele>58</ele>
        <time>2025-03-13T23:08:11Z</time>
      </trkpt>
      <trkpt lat="47.36877" lon="-0.53168">
        <ele>59</ele>
        <time>2025-03-13T23:08:33Z</time>
      </trkpt>
      <trkpt lat="47.36805" lon="-0.5314">
        <ele>59</ele>
        <time>2025-03-13T23:09:32Z</time>
      </trkpt>
      <trkpt lat="47.36793" lon="-0.53131">
        <ele>59</ele>
        <time>2025-03-13T23:09:43Z</time>
      </trkpt>
      <trkpt lat="47.36788" lon="-0.53124">
        <ele>59</ele>
        <time>2025-03-13T23:09:49Z</time>
      </trkpt>
      <trkpt lat="47.36783" lon="-0.53112">
        <ele>59</ele>
        <time>2025-03-13T23:09:56Z</time>
      </trkpt>
      <trkpt lat="47.36758" lon="-0.52955">
        <ele>59</ele>
        <time>2025-03-13T23:11:24Z</time>
      </trkpt>
      <trkpt lat="47.36739" lon="-0.52876">
        <ele>60</ele>
        <time>2025-03-13T23:12:09Z</time>
      </trkpt>
      <trkpt lat="47.3674" lon="-0.52864">
        <ele>60</ele>
        <time>2025-03-13T23:12:16Z</time>
      </trkpt>
      <trkpt lat="47.36739" lon="-0.5285">
        <ele>60</ele>
        <time>2025-03-13T23:12:24Z</time>
      </trkpt>
      <trkpt lat="47.36736" lon="-0.52833">
        <ele>60</ele>
        <time>2025-03-13T23:12:33Z</time>
      </trkpt>
      <trkpt lat="47.36715" lon="-0.52762">
        <ele>61</ele>
        <time>2025-03-13T23:13:15Z</time>
      </trkpt>
      <trkpt lat="47.3671" lon="-0.52737">
        <ele>61</ele>
        <time>2025-03-13T23:13:29Z</time>
      </trkpt>
      <trkpt lat="47.36703" lon="-0.52716">
        <ele>62</ele>
        <time>2025-03-13T23:13:42Z</time>
      </trkpt>
      <trkpt lat="47.36696" lon="-0.52701">
        <ele>62</ele>
        <time>2025-03-13T23:13:52Z</time>
      </trkpt>
      <trkpt lat="47.36691" lon="-0.52688">
        <ele>62</ele>
        <time>2025-03-13T23:14:00Z</time>
      </trkpt>
      <trkpt lat="47.36681" lon="-0.5267">
        <ele>63</ele>
        <time>2025-03-13T23:14:13Z</time>
      </trkpt>
      <trkpt lat="47.3665" lon="-0.5262">
        <ele>64</ele>
        <time>2025-03-13T23:14:49Z</time>
      </trkpt>
      <trkpt lat="47.36647" lon="-0.52615">
        <ele>64</ele>
        <time>2025-03-13T23:14:53Z</time>
      </trkpt>
      <trkpt lat="47.36646" lon="-0.52606">
        <ele>64</ele>
        <time>2025-03-13T23:14:58Z</time>
      </trkpt>
      <trkpt lat="47.36646" lon="-0.526">
        <ele>64</ele>
        <time>2025-03-13T23:15:01Z</time>
      </trkpt>
      <trkpt lat="47.36605" lon="-0.52576">
        <ele>63</ele>
        <time>2025-03-13T23:15:36Z</time>
      </trkpt>
      <trkpt lat="47.36526" lon="-0.52534">
        <ele>60</ele>
        <time>2025-03-13T23:16:44Z</time>
      </trkpt>
      <trkpt lat="47.36523" lon="-0.52534">
        <ele>60</ele>
        <time>2025-03-13T23:16:46Z</time>
      </trkpt>
      <trkpt lat="47.36512" lon="-0.52531">
        <ele>60</ele>
        <time>2025-03-13T23:16:55Z</time>
      </trkpt>
      <trkpt lat="47.36511" lon="-0.52528">
        <ele>60</ele>
        <time>2025-03-13T23:16:57Z</time>
      </trkpt>
      <trkpt lat="47.36508" lon="-0.52524">
        <ele>60</ele>
        <time>2025-03-13T23:17:00Z</time>
      </trkpt>
      <trkpt lat="47.36506" lon="-0.52524">
        <ele>59</ele>
        <time>2025-03-13T23:17:02Z</time>
      </trkpt>
      <trkpt lat="47.36503" lon="-0.52526">
        <ele>59</ele>
        <time>2025-03-13T23:17:04Z</time>
      </trkpt>
      <trkpt lat="47.36495" lon="-0.52518">
        <ele>59</ele>
        <time>2025-03-13T23:17:12Z</time>
      </trkpt>
      <trkpt lat="47.36484" lon="-0.52511">
        <ele>58</ele>
        <time>2025-03-13T23:17:22Z</time>
      </trkpt>
      <trkpt lat="47.36463" lon="-0.52499">
        <ele>57</ele>
        <time>2025-03-13T23:17:40Z</time>
      </trkpt>
      <trkpt lat="47.36454" lon="-0.52491">
        <ele>56</ele>
        <time>2025-03-13T23:17:48Z</time>
      </trkpt>
      <trkpt lat="47.36449" lon="-0.52485">
        <ele>56</ele>
        <time>2025-03-13T23:17:53Z</time>
      </trkpt>
      <trkpt lat="47.36443" lon="-0.52474">
        <ele>56</ele>
        <time>2025-03-13T23:18:01Z</time>
      </trkpt>
      <trkpt lat="47.36441" lon="-0.52468">
        <ele>56</ele>
        <time>2025-03-13T23:18:05Z</time>
      </trkpt>
      <trkpt lat="47.36431" lon="-0.52441">
        <ele>55</ele>
        <time>2025-03-13T23:18:21Z</time>
        <extensions>
          <visugpx:TrkExtension xmlns:visugpx="https://www.visugpx.com/editgpx/">
            <visugpx:node>1</visugpx:node>
            </visugpx:TrkExtension>
        </extensions>
      </trkpt>
    </trkseg>
  </trk>
</gpx>